Time;durP1;ratioP1;P1;durP2;ratioP2;P2;SDS_P1;SDS_P2;PMS_P1;PMS_P2;Temp;Humidity;BMP_temperature;BMP_pressure;BME280_temperature;BME280_humidity;BME280_pressure;Samples;Min_cycle;Max_cycle;Signal;HPM_P1;HPM_P2
2022/01/29 00:01:29;;;;;;;44.05;25.02;;;6.90;99.90;;;;;;5070787;28;20472;-67
2022/01/29 00:03:54;;;;;;;39.75;27.15;;;6.80;99.90;;;;;;5053506;28;20139;-65
2022/01/29 00:06:20;;;;;;;42.95;26.73;;;7.00;99.90;;;;;;5056608;28;20152;-64
2022/01/29 00:08:46;;;;;;;44.78;26.63;;;6.90;99.90;;;;;;5058356;28;20506;-66
2022/01/29 00:11:14;;;;;;;44.35;27.27;;;6.80;99.90;;;;;;5075484;28;20044;-64
2022/01/29 00:13:40;;;;;;;45.00;28.35;;;7.00;99.90;;;;;;5071613;28;20383;-64
2022/01/29 00:16:06;;;;;;;46.88;28.42;;;6.90;99.90;;;;;;5067192;28;20060;-64
2022/01/29 00:18:32;;;;;;;45.15;28.38;;;6.90;99.90;;;;;;5050474;28;20048;-65
2022/01/29 00:20:58;;;;;;;49.33;29.63;;;6.80;99.90;;;;;;5055237;28;20542;-66
2022/01/29 00:23:23;;;;;;;48.33;30.40;;;6.80;99.90;;;;;;5052335;28;20070;-64
2022/01/29 00:25:49;;;;;;;48.97;29.20;;;6.80;99.90;;;;;;5050920;28;20060;-64
2022/01/29 00:28:15;;;;;;;50.17;30.45;;;6.80;99.90;;;;;;5049877;28;20052;-64
2022/01/29 00:30:42;;;;;;;45.92;28.88;;;6.80;99.90;;;;;;5049577;28;20052;-64
2022/01/29 00:33:12;;;;;;;46.55;30.25;;;6.80;99.90;;;;;;5069094;28;20049;-64
2022/01/29 00:35:39;;;;;;;45.55;31.95;;;6.80;99.90;;;;;;5050649;28;20076;-66
2022/01/29 00:38:05;;;;;;;52.83;30.75;;;6.70;99.90;;;;;;5049848;28;20844;-65
2022/01/29 00:40:31;;;;;;;53.42;33.33;;;6.70;99.90;;;;;;5067109;28;20125;-65
2022/01/29 00:42:58;;;;;;;54.33;32.85;;;6.60;99.90;;;;;;5066851;28;20063;-64
2022/01/29 00:45:24;;;;;;;59.25;32.88;;;6.60;99.90;;;;;;5050069;28;20048;-64
2022/01/29 00:47:49;;;;;;;54.38;33.30;;;6.60;99.90;;;;;;5048877;28;20048;-66
2022/01/29 00:50:15;;;;;;;57.95;34.90;;;6.60;99.90;;;;;;5051100;28;20062;-64
2022/01/29 00:52:41;;;;;;;54.65;31.67;;;6.50;99.90;;;;;;5048352;28;20107;-63
2022/01/29 00:55:09;;;;;;;57.15;33.58;;;6.50;99.90;;;;;;5049409;28;20102;-67
2022/01/29 00:57:37;;;;;;;55.38;32.95;;;6.50;99.90;;;;;;5067110;28;20090;-65
2022/01/29 01:00:08;;;;;;;58.05;32.55;;;6.50;99.90;;;;;;5049004;28;20052;-63
2022/01/29 01:02:34;;;;;;;56.42;32.72;;;6.50;99.90;;;;;;5049692;28;20091;-65
2022/01/29 01:05:00;;;;;;;57.42;32.25;;;6.50;99.90;;;;;;5048909;28;20075;-66
2022/01/29 01:07:26;;;;;;;53.95;31.42;;;6.50;99.90;;;;;;5053128;28;20044;-66
2022/01/29 01:09:52;;;;;;;56.25;30.35;;;6.60;99.90;;;;;;5048670;28;20415;-66
2022/01/29 01:12:17;;;;;;;53.67;31.17;;;6.40;99.90;;;;;;5049238;28;20087;-65
2022/01/29 01:14:43;;;;;;;52.90;32.45;;;6.50;99.90;;;;;;5048622;28;20041;-66
2022/01/29 01:17:09;;;;;;;55.40;32.25;;;6.50;99.90;;;;;;5048036;28;20052;-67
2022/01/29 01:19:34;;;;;;;56.30;30.65;;;6.20;99.90;;;;;;5067309;28;20076;-64
2022/01/29 01:22:00;;;;;;;51.55;28.95;;;6.50;99.90;;;;;;5065822;28;20408;-67
2022/01/29 01:24:26;;;;;;;59.00;31.52;;;6.50;99.90;;;;;;5066589;28;20397;-66
2022/01/29 01:26:52;;;;;;;56.22;31.50;;;6.50;99.90;;;;;;5045581;28;20139;-67
2022/01/29 01:29:18;;;;;;;57.20;30.40;;;6.50;99.90;;;;;;5049959;28;20048;-65
2022/01/29 01:31:45;;;;;;;53.85;31.25;;;6.90;99.90;;;;;;5050933;28;20113;-66
2022/01/29 01:34:12;;;;;;;52.92;30.65;;;6.50;99.90;;;;;;5051598;28;20049;-67
2022/01/29 01:36:56;;;;;;;50.88;29.02;;;6.50;99.90;;;;;;5053088;28;20056;-66
2022/01/29 01:39:25;;;;;;;51.33;29.90;;;6.50;99.90;;;;;;5056944;28;20497;-66
2022/01/29 01:41:56;;;;;;;53.40;30.40;;;6.60;99.90;;;;;;5066210;28;20135;-64
2022/01/29 01:44:22;;;;;;;47.95;27.80;;;6.60;99.90;;;;;;5047713;28;20075;-64
2022/01/29 01:46:48;;;;;;;49.97;29.27;;;6.50;99.90;;;;;;5049352;28;20467;-65
2022/01/29 01:49:15;;;;;;;51.30;28.38;;;6.70;99.90;;;;;;5066352;28;20086;-67
2022/01/29 01:51:42;;;;;;;48.45;27.25;;;6.60;99.90;;;;;;5047536;28;20534;-65
2022/01/29 01:54:08;;;;;;;51.00;28.92;;;6.60;99.90;;;;;;5048294;28;20045;-67
2022/01/29 01:56:34;;;;;;;48.13;28.13;;;7.10;99.90;;;;;;5048843;28;20128;-67
2022/01/29 01:59:00;;;;;;;56.65;29.05;;;6.60;99.90;;;;;;5066358;28;20569;-66
2022/01/29 02:01:26;;;;;;;54.10;28.88;;;6.60;99.90;;;;;;5052165;28;20044;-65
2022/01/29 02:03:52;;;;;;;55.78;29.90;;;6.60;99.90;;;;;;5055903;28;20415;-66
2022/01/29 02:06:19;;;;;;;48.25;29.23;;;6.60;99.90;;;;;;5067870;28;20058;-65
2022/01/29 02:08:44;;;;;;;58.67;29.77;;;6.60;99.90;;;;;;5053509;28;20053;-65
2022/01/29 02:11:10;;;;;;;53.05;30.05;;;6.60;99.90;;;;;;5049240;28;20083;-67
2022/01/29 02:13:36;;;;;;;56.67;30.70;;;6.70;99.90;;;;;;5047907;28;20048;-65
2022/01/29 02:16:02;;;;;;;55.85;30.98;;;6.70;99.90;;;;;;5048520;28;20056;-67
2022/01/29 02:18:29;;;;;;;54.53;30.42;;;6.70;99.90;;;;;;5031459;28;20388;-66
2022/01/29 02:20:54;;;;;;;52.53;29.33;;;6.80;99.90;;;;;;5048617;28;20049;-67
2022/01/29 02:23:20;;;;;;;60.47;29.33;;;6.70;99.90;;;;;;5047626;28;20353;-66
2022/01/29 02:25:50;;;;;;;59.63;29.10;;;6.70;99.90;;;;;;5031767;28;20040;-65
2022/01/29 02:28:24;;;;;;;56.10;28.48;;;6.70;99.90;;;;;;5054207;28;20084;-67
2022/01/29 02:31:01;;;;;;;57.38;31.92;;;6.80;99.90;;;;;;5071692;28;20041;-66
2022/01/29 02:33:28;;;;;;;58.25;29.27;;;6.70;99.90;;;;;;5054342;28;20157;-65
2022/01/29 02:35:55;;;;;;;59.05;28.55;;;6.80;99.90;;;;;;5054281;28;20048;-65
2022/01/29 02:38:24;;;;;;;50.03;28.30;;;6.80;99.90;;;;;;5054017;28;20128;-66
2022/01/29 02:40:54;;;;;;;58.33;29.85;;;6.80;99.90;;;;;;5038736;28;20044;-65
2022/01/29 02:43:23;;;;;;;57.20;26.30;;;6.70;99.90;;;;;;5054323;28;20400;-67
2022/01/29 02:45:54;;;;;;;55.03;28.35;;;6.80;99.90;;;;;;5033648;28;20061;-67
2022/01/29 02:48:21;;;;;;;48.22;26.75;;;6.80;99.90;;;;;;5054281;28;20052;-67
2022/01/29 02:50:47;;;;;;;56.03;28.90;;;7.00;99.90;;;;;;5053741;28;20044;-66
2022/01/29 02:53:13;;;;;;;55.90;26.80;;;6.90;99.90;;;;;;5054603;28;20044;-65
2022/01/29 02:55:40;;;;;;;52.72;26.67;;;7.00;99.90;;;;;;5069593;28;20051;-66
2022/01/29 02:58:06;;;;;;;55.33;27.67;;;7.00;99.90;;;;;;5053384;28;20052;-66
2022/01/29 03:00:32;;;;;;;57.85;27.85;;;7.00;99.90;;;;;;5052769;28;20055;-66
2022/01/29 03:02:58;;;;;;;53.90;26.50;;;7.00;99.90;;;;;;5072195;28;20052;-66
2022/01/29 03:05:24;;;;;;;47.97;25.90;;;7.10;99.90;;;;;;5053661;28;20054;-66
2022/01/29 03:07:49;;;;;;;56.30;26.48;;;7.10;99.90;;;;;;5054661;28;20128;-67
2022/01/29 03:10:15;;;;;;;50.25;24.73;;;7.10;99.90;;;;;;5053909;28;20053;-65
2022/01/29 03:12:41;;;;;;;58.15;27.67;;;7.00;99.90;;;;;;5053998;28;20045;-65
2022/01/29 03:15:09;;;;;;;51.47;25.73;;;7.10;99.90;;;;;;5052611;28;20102;-68
2022/01/29 03:17:34;;;;;;;56.00;25.05;;;7.10;99.90;;;;;;5072889;28;20385;-66
2022/01/29 03:20:00;;;;;;;50.67;24.55;;;7.20;99.90;;;;;;5052643;28;20060;-65
2022/01/29 03:22:26;;;;;;;50.65;24.83;;;7.00;99.90;;;;;;5053077;28;20053;-65
2022/01/29 03:24:51;;;;;;;53.70;25.13;;;7.10;99.90;;;;;;5052159;28;20469;-67
2022/01/29 03:27:17;;;;;;;52.63;25.08;;;7.20;99.90;;;;;;5053745;28;20052;-66
2022/01/29 03:29:42;;;;;;;53.45;24.73;;;7.20;99.90;;;;;;5053625;28;20048;-67
2022/01/29 03:32:08;;;;;;;47.10;24.85;;;7.20;99.90;;;;;;5055157;28;20048;-66
2022/01/29 03:34:34;;;;;;;48.75;24.83;;;7.20;99.90;;;;;;5071429;28;20044;-65
2022/01/29 03:36:59;;;;;;;50.15;22.95;;;7.30;99.90;;;;;;5038641;28;20461;-65
2022/01/29 03:39:27;;;;;;;64.35;24.65;;;7.30;99.90;;;;;;5054683;28;20120;-67
2022/01/29 03:42:00;;;;;;;49.28;23.67;;;7.30;99.90;;;;;;5052691;28;20082;-66
2022/01/29 03:44:26;;;;;;;49.25;23.73;;;7.30;99.90;;;;;;5054774;28;20075;-66
2022/01/29 03:46:51;;;;;;;45.97;23.95;;;7.40;99.90;;;;;;5054744;28;20484;-66
2022/01/29 03:49:17;;;;;;;41.90;21.95;;;7.30;99.90;;;;;;5058016;28;20378;-67
2022/01/29 03:51:42;;;;;;;47.00;22.38;;;7.40;99.90;;;;;;5056867;28;20169;-65
2022/01/29 03:54:08;;;;;;;45.45;23.17;;;7.40;99.90;;;;;;5075910;28;20542;-65
2022/01/29 03:56:34;;;;;;;43.45;21.23;;;7.40;99.90;;;;;;5056160;28;20040;-65
2022/01/29 03:58:59;;;;;;;46.83;22.27;;;7.40;99.90;;;;;;5213378;22;20337;-65
2022/01/29 04:01:25;;;;;;;43.65;20.95;;;7.40;99.90;;;;;;5140046;22;20068;-66
2022/01/29 04:03:50;;;;;;;42.13;22.08;;;7.70;99.90;;;;;;5165234;22;20055;-66
2022/01/29 04:06:16;;;;;;;42.38;21.30;;;7.50;99.90;;;;;;5039937;28;20594;-67
2022/01/29 04:08:43;;;;;;;39.40;22.05;;;7.70;99.90;;;;;;5028309;28;20358;-66
2022/01/29 04:11:12;;;;;;;38.88;20.80;;;7.60;99.90;;;;;;5024778;28;20477;-67
2022/01/29 04:13:42;;;;;;;38.45;20.77;;;7.60;99.90;;;;;;5026887;28;20057;-66
2022/01/29 04:16:08;;;;;;;39.47;20.27;;;7.70;99.90;;;;;;5023928;28;20079;-67
2022/01/29 04:18:34;;;;;;;44.60;21.58;;;7.70;99.90;;;;;;5025731;28;20081;-68
2022/01/29 04:21:01;;;;;;;41.17;21.70;;;7.70;99.90;;;;;;5025971;28;20124;-65
2022/01/29 04:23:26;;;;;;;35.65;19.77;;;7.70;99.90;;;;;;5025360;28;20053;-65
2022/01/29 04:25:53;;;;;;;38.78;19.83;;;7.70;99.90;;;;;;5025131;28;20050;-66
2022/01/29 04:28:26;;;;;;;38.65;19.60;;;7.70;99.90;;;;;;5042703;28;20045;-66
2022/01/29 04:30:57;;;;;;;40.28;20.45;;;7.80;99.90;;;;;;5035279;28;20046;-66
2022/01/29 04:35:49;;;;;;;40.15;19.88;;;7.80;99.90;;;;;;5032995;28;20092;-66
2022/01/29 04:38:15;;;;;;;32.63;20.67;;;7.80;99.90;;;;;;5030887;28;20394;-64
2022/01/29 04:40:41;;;;;;;36.83;18.83;;;8.00;99.90;;;;;;5026975;28;20091;-65
2022/01/29 04:43:07;;;;;;;34.08;18.85;;;7.80;99.90;;;;;;5026079;28;20445;-64
2022/01/29 04:45:33;;;;;;;34.83;19.15;;;7.80;99.90;;;;;;5024676;28;20508;-65
2022/01/29 04:47:59;;;;;;;38.35;20.25;;;7.80;99.90;;;;;;5028578;28;20061;-66
2022/01/29 04:50:25;;;;;;;31.00;19.55;;;7.80;99.90;;;;;;5029726;28;20041;-66
2022/01/29 04:52:50;;;;;;;34.72;19.17;;;7.80;99.90;;;;;;5027774;28;20438;-65
2022/01/29 04:55:16;;;;;;;37.03;18.88;;;7.80;99.90;;;;;;5032027;28;20088;-65
2022/01/29 04:57:41;;;;;;;33.58;17.50;;;7.90;99.90;;;;;;5035312;28;20501;-64
2022/01/29 05:00:19;;;;;;;30.42;19.10;;;7.80;99.90;;;;;;5022444;28;20057;-63
2022/01/29 05:02:45;;;;;;;35.10;19.30;;;7.80;99.90;;;;;;5025046;28;20053;-65
2022/01/29 05:05:11;;;;;;;36.67;19.65;;;7.90;99.90;;;;;;5030875;28;20067;-65
2022/01/29 05:07:36;;;;;;;32.97;19.50;;;7.80;99.90;;;;;;5033306;28;20507;-67
2022/01/29 05:10:02;;;;;;;36.15;18.10;;;7.90;99.90;;;;;;5046069;28;20053;-66
2022/01/29 05:12:35;;;;;;;33.70;17.55;;;7.80;99.90;;;;;;5033803;28;20386;-66
2022/01/29 05:15:10;;;;;;;31.23;18.73;;;7.90;99.90;;;;;;5050728;28;20071;-64
2022/01/29 05:28:33;;;;;;;37.28;19.38;;;7.90;99.90;;;;;;5025158;28;20056;-64
2022/01/29 05:30:59;;;;;;;33.72;19.05;;;7.90;99.90;;;;;;5022805;28;20065;-65
2022/01/29 05:33:24;;;;;;;32.47;18.30;;;7.90;99.90;;;;;;5024506;28;20049;-68
2022/01/29 05:35:50;;;;;;;32.47;18.23;;;7.90;99.90;;;;;;5032591;28;20050;-65
2022/01/29 05:38:15;;;;;;;32.10;18.17;;;8.00;99.90;;;;;;5028909;28;20084;-65
2022/01/29 05:40:41;;;;;;;30.00;17.02;;;8.00;99.90;;;;;;5028031;28;20064;-64
2022/01/29 05:43:06;;;;;;;29.48;17.95;;;8.00;99.90;;;;;;5023251;28;20068;-65
2022/01/29 05:45:32;;;;;;;33.13;18.63;;;8.00;99.90;;;;;;5023913;28;20057;-65
2022/01/29 05:47:57;;;;;;;28.08;18.00;;;8.00;99.90;;;;;;5026012;28;20432;-65
2022/01/29 05:50:23;;;;;;;32.83;17.25;;;8.00;99.90;;;;;;5023864;28;20996;-66
2022/01/29 05:52:53;;;;;;;36.78;18.33;;;8.10;99.90;;;;;;5027057;28;20049;-65
2022/01/29 05:55:19;;;;;;;32.33;18.10;;;8.10;99.90;;;;;;5032014;28;20104;-66
2022/01/29 05:57:44;;;;;;;30.63;18.33;;;8.10;99.90;;;;;;5023298;28;20100;-65
2022/01/29 06:00:10;;;;;;;29.13;18.05;;;8.10;99.90;;;;;;5025205;28;20548;-67
2022/01/29 06:02:36;;;;;;;30.48;17.25;;;8.10;99.90;;;;;;5029543;28;20614;-65
2022/01/29 06:05:02;;;;;;;34.85;18.83;;;8.10;99.90;;;;;;5025164;28;20045;-67
2022/01/29 06:07:27;;;;;;;30.38;18.23;;;8.20;99.90;;;;;;5023456;28;20047;-65
2022/01/29 06:09:53;;;;;;;29.90;17.90;;;8.20;99.90;;;;;;5030831;28;20131;-67
2022/01/29 06:12:18;;;;;;;26.88;17.73;;;8.20;99.90;;;;;;5022161;28;20190;-65
2022/01/29 06:14:44;;;;;;;29.73;17.23;;;8.20;99.90;;;;;;5022339;28;20053;-66
2022/01/29 06:17:11;;;;;;;29.10;16.75;;;8.20;99.90;;;;;;5023077;28;20065;-66
2022/01/29 06:19:36;;;;;;;24.75;16.15;;;8.20;99.90;;;;;;5024647;28;20041;-66
2022/01/29 06:22:08;;;;;;;32.72;16.67;;;8.20;99.90;;;;;;5028982;28;20049;-67
2022/01/29 06:24:33;;;;;;;31.35;17.17;;;8.20;99.90;;;;;;5032003;28;20398;-64
2022/01/29 06:26:59;;;;;;;26.77;15.00;;;8.20;99.90;;;;;;5030995;28;20046;-66
2022/01/29 06:29:24;;;;;;;23.60;15.77;;;8.20;99.90;;;;;;5032988;28;20053;-65
2022/01/29 06:31:50;;;;;;;24.25;14.98;;;8.20;99.90;;;;;;5026261;28;20052;-65
2022/01/29 06:34:16;;;;;;;21.25;13.25;;;8.30;99.90;;;;;;5028756;28;20057;-65
2022/01/29 06:36:41;;;;;;;21.30;13.65;;;8.30;99.90;;;;;;5030820;28;20465;-65
2022/01/29 06:39:07;;;;;;;20.08;13.35;;;8.30;99.90;;;;;;5025049;28;20129;-65
2022/01/29 06:41:33;;;;;;;23.15;13.35;;;8.30;99.90;;;;;;5022315;28;20049;-66
2022/01/29 06:43:58;;;;;;;18.58;12.73;;;8.30;99.90;;;;;;5038778;28;20049;-65
2022/01/29 06:46:24;;;;;;;21.48;12.82;;;8.30;99.90;;;;;;5034194;28;20089;-66
2022/01/29 06:48:49;;;;;;;19.00;11.73;;;8.30;99.90;;;;;;5034188;28;20037;-65
2022/01/29 06:51:19;;;;;;;21.20;12.65;;;;;;;;;;5031830;28;20049;-66
2022/01/29 06:53:56;;;;;;;20.60;12.13;;;;;;;;;;5033009;28;20049;-66
2022/01/29 06:56:27;;;;;;;19.55;11.70;;;;;;;;;;5033150;28;20041;-66
2022/01/29 06:58:57;;;;;;;17.52;11.82;;;;;;;;;;5033513;28;20056;-67
2022/01/29 07:01:26;;;;;;;16.77;10.88;;;;;;;;;;5030873;28;20069;-65
2022/01/29 07:03:55;;;;;;;16.75;10.63;;;;;;;;;;5030775;28;20564;-65
2022/01/29 07:06:23;;;;;;;20.05;11.25;;;;;;;;;;5030434;28;20057;-66
2022/01/29 07:08:51;;;;;;;16.48;11.07;;;;;;;;;;5030784;28;20052;-65
2022/01/29 07:11:20;;;;;;;19.00;11.50;;;;;;;;;;5043045;28;20049;-65
2022/01/29 07:13:47;;;;;;;15.98;10.68;;;;;;;;;;5032539;28;20556;-66
2022/01/29 07:16:14;;;;;;;19.77;11.02;;;;;;;;;;5031111;28;20191;-66
2022/01/29 07:18:42;;;;;;;22.13;10.98;;;;;;;;;;5033128;28;20107;-65
2022/01/29 07:21:09;;;;;;;22.02;11.05;;;;;;;;;;5032596;28;20057;-65
2022/01/29 07:23:36;;;;;;;15.02;11.32;;;;;;;;;;5035052;28;20057;-66
2022/01/29 07:26:03;;;;;;;19.48;11.07;;;;;;;;;;5036662;28;20065;-66
2022/01/29 07:28:32;;;;;;;20.08;11.73;;;;;;;;;;5037815;28;20413;-67
2022/01/29 07:30:59;;;;;;;20.27;11.73;;;;;;;;;;5036933;28;20128;-65
2022/01/29 07:33:27;;;;;;;18.40;11.75;;;;;;;;;;5036311;28;20393;-67
2022/01/29 07:35:55;;;;;;;21.33;12.73;;;;;;;;;;5036535;28;20128;-68
2022/01/29 07:38:22;;;;;;;14.60;10.93;;;;;;;;;;5016983;28;20431;-65
2022/01/29 07:40:49;;;;;;;17.30;11.27;;;;;;;;;;5033700;28;20136;-67
2022/01/29 07:43:16;;;;;;;25.45;12.20;;;;;;;;;;5036261;28;20492;-66
2022/01/29 07:45:43;;;;;;;24.63;12.38;;;;;;;;;;5025751;28;20053;-67
2022/01/29 07:48:10;;;;;;;21.48;11.65;;;;;;;;;;5046255;28;20046;-66
2022/01/29 07:50:37;;;;;;;16.35;11.23;;;;;;;;;;5015005;28;20054;-66
2022/01/29 07:53:05;;;;;;;19.77;11.75;;;;;;;;;;5015206;28;20100;-68
2022/01/29 07:55:32;;;;;;;20.38;11.65;;;;;;;;;;5014734;28;20049;-66
2022/01/29 07:58:01;;;;;;;19.08;12.30;;;;;;;;;;5022281;28;20054;-64
2022/01/29 08:00:28;;;;;;;22.13;12.30;;;;;;;;;;5034739;28;20335;-66
2022/01/29 08:02:55;;;;;;;21.75;12.05;;;;;;;;;;5034523;28;20057;-65
2022/01/29 08:05:22;;;;;;;19.38;11.75;;;;;;;;;;5033969;28;20053;-66
2022/01/29 08:07:49;;;;;;;21.63;12.05;;;;;;;;;;5034681;28;20060;-68
2022/01/29 08:10:16;;;;;;;24.58;12.13;;;;;;;;;;5034514;28;20059;-67
2022/01/29 08:12:43;;;;;;;18.70;12.02;;;;;;;;;;5050971;28;20491;-67
2022/01/29 08:15:10;;;;;;;16.88;11.55;;;;;;;;;;5035846;28;20064;-66
2022/01/29 08:17:37;;;;;;;20.95;11.93;;;;;;;;;;5050841;28;20048;-66
2022/01/29 08:20:05;;;;;;;18.15;10.18;;;;;;;;;;5035778;28;20049;-65
2022/01/29 08:22:33;;;;;;;18.42;11.35;;;;;;;;;;5034607;28;20045;-67
2022/01/29 08:25:02;;;;;;;25.00;11.40;;;;;;;;;;5035202;28;20547;-63
2022/01/29 08:27:28;;;;;;;17.13;10.35;;;;;;;;;;5053511;28;20057;-63
2022/01/29 08:29:55;;;;;;;18.70;9.32;;;;;;;;;;5054430;28;20102;-67
2022/01/29 08:32:22;;;;;;;18.42;9.75;;;;;;;;;;5054349;28;20461;-66
2022/01/29 08:34:49;;;;;;;16.27;9.05;;;;;;;;;;5027980;28;20060;-67
2022/01/29 08:37:15;;;;;;;15.73;8.82;;;;;;;;;;5047892;28;20049;-66
2022/01/29 08:39:43;;;;;;;13.05;8.00;;;;;;;;;;5049276;28;20043;-67
2022/01/29 08:42:09;;;;;;;14.07;7.97;;;8.80;99.90;;;;;;5033205;28;20148;-69
2022/01/29 08:44:35;;;;;;;12.23;7.93;;;8.80;99.90;;;;;;5033422;28;20159;-67
2022/01/29 08:47:01;;;;;;;13.27;8.15;;;8.80;99.90;;;;;;5034579;28;20061;-66
2022/01/29 08:49:27;;;;;;;12.15;6.78;;;8.90;99.90;;;;;;5034956;28;20049;-66
2022/01/29 08:51:53;;;;;;;12.00;7.07;;;8.90;99.90;;;;;;5034306;28;20072;-65
2022/01/29 08:54:18;;;;;;;14.02;7.10;;;8.90;99.90;;;;;;5033977;28;20509;-69
2022/01/29 08:56:44;;;;;;;12.05;6.40;;;9.00;99.90;;;;;;5035021;28;20049;-66
2022/01/29 08:59:11;;;;;;;10.40;6.43;;;9.00;99.90;;;;;;5036708;28;20515;-66
2022/01/29 09:01:37;;;;;;;12.20;6.68;;;9.00;99.90;;;;;;5034081;28;20115;-68
2022/01/29 09:04:03;;;;;;;11.43;7.07;;;9.00;99.90;;;;;;5035653;28;20045;-67
2022/01/29 09:06:29;;;;;;;12.02;6.40;;;9.10;99.90;;;;;;5034278;28;20041;-66
2022/01/29 09:08:54;;;;;;;14.00;7.07;;;9.10;99.90;;;;;;5033373;28;20048;-66
2022/01/29 09:11:20;;;;;;;15.43;6.70;;;9.10;99.90;;;;;;5033859;28;20057;-67
2022/01/29 09:13:46;;;;;;;15.73;7.18;;;9.20;99.90;;;;;;5018938;28;20486;-66
2022/01/29 09:16:12;;;;;;;14.90;6.95;;;9.20;99.90;;;;;;5034091;28;20123;-65
2022/01/29 09:18:38;;;;;;;11.63;6.00;;;9.20;99.90;;;;;;5033669;28;20490;-67
2022/01/29 09:21:04;;;;;;;11.73;6.95;;;9.20;99.90;;;;;;5030981;28;20037;-68
2022/01/29 09:23:30;;;;;;;13.25;7.50;;;9.20;99.90;;;;;;5032009;28;20054;-67
2022/01/29 09:25:56;;;;;;;13.23;6.00;;;9.20;99.90;;;;;;5028642;28;20061;-65
2022/01/29 09:28:22;;;;;;;13.73;6.85;;;9.20;99.90;;;;;;5032734;28;20140;-65
2022/01/29 09:30:48;;;;;;;14.15;6.68;;;9.20;99.90;;;;;;5031993;28;20054;-66
2022/01/29 09:33:15;;;;;;;12.00;6.88;;;9.30;99.90;;;;;;5032369;28;20041;-66
2022/01/29 09:35:41;;;;;;;11.57;6.55;;;9.30;99.90;;;;;;5030587;28;20072;-65
2022/01/29 09:38:09;;;;;;;9.05;5.78;;;9.40;99.90;;;;;;5034924;28;20124;-68
2022/01/29 09:40:35;;;;;;;13.77;6.82;;;9.40;99.90;;;;;;5033491;28;20049;-66
2022/01/29 09:43:02;;;;;;;12.20;6.13;;;9.40;99.90;;;;;;5031903;28;20091;-66
2022/01/29 09:45:28;;;;;;;14.18;7.03;;;9.40;99.90;;;;;;5033072;28;20107;-66
2022/01/29 09:48:01;;;;;;;13.50;6.45;;;9.40;99.90;;;;;;5033688;28;20049;-66
2022/01/29 09:50:32;;;;;;;12.80;6.82;;;9.40;99.90;;;;;;5032289;28;20049;-67
2022/01/29 09:52:59;;;;;;;10.23;5.90;;;9.50;99.90;;;;;;5021963;28;20096;-66
2022/01/29 09:55:26;;;;;;;14.50;6.45;;;9.50;99.90;;;;;;5030357;28;20049;-68
2022/01/29 09:57:52;;;;;;;12.65;6.20;;;9.50;99.90;;;;;;5043574;28;20049;-66
2022/01/29 10:00:19;;;;;;;10.07;5.78;;;9.50;99.90;;;;;;5032227;28;20121;-67
2022/01/29 10:02:44;;;;;;;13.32;6.07;;;9.50;99.90;;;;;;5033955;28;20412;-66
2022/01/29 10:05:12;;;;;;;14.20;6.25;;;9.60;99.90;;;;;;5031704;28;20061;-66
2022/01/29 10:07:38;;;;;;;8.95;5.07;;;9.60;99.90;;;;;;5032406;28;20103;-66
2022/01/29 10:10:17;;;;;;;9.68;4.95;;;9.60;99.90;;;;;;5031760;28;20057;-67
2022/01/29 10:12:42;;;;;;;8.27;4.40;;;9.70;99.90;;;;;;5030541;28;20054;-65
2022/01/29 10:15:09;;;;;;;10.52;4.35;;;9.70;99.90;;;;;;5032111;28;20119;-66
2022/01/29 10:17:42;;;;;;;11.50;4.95;;;9.70;99.90;;;;;;5032111;28;20120;-65
2022/01/29 10:20:08;;;;;;;9.35;4.43;;;9.70;99.90;;;;;;5013939;28;20129;-65
2022/01/29 10:22:35;;;;;;;8.88;4.65;;;9.70;99.90;;;;;;5012635;28;20513;-67
2022/01/29 10:25:04;;;;;;;8.57;4.88;;;9.70;99.90;;;;;;5031533;28;20186;-65
2022/01/29 10:27:30;;;;;;;8.25;5.00;;;9.70;99.90;;;;;;5052811;28;20076;-66
2022/01/29 10:30:00;;;;;;;8.15;4.05;;;9.80;99.90;;;;;;5045446;28;20478;-65
2022/01/29 10:32:26;;;;;;;7.50;4.20;;;9.80;99.90;;;;;;5048624;28;20053;-67
2022/01/29 10:34:56;;;;;;;7.53;4.03;;;9.90;99.90;;;;;;5033117;28;20129;-67
2022/01/29 10:37:23;;;;;;;8.55;4.25;;;9.80;99.90;;;;;;5031558;28;20057;-64
2022/01/29 10:39:59;;;;;;;9.60;4.30;;;;;;;;;;5032737;28;20075;-65
2022/01/29 10:42:36;;;;;;;14.00;4.00;;;;;;;;;;5032131;28;20049;-66
2022/01/29 10:45:06;;;;;;;11.10;4.63;;;;;;;;;;5011963;28;20061;-65
2022/01/29 10:47:52;;;;;;;7.60;3.78;;;10.00;99.90;;;;;;5026777;28;20061;-66
2022/01/29 10:50:17;;;;;;;6.95;3.70;;;10.10;99.90;;;;;;5031765;28;20421;-66
2022/01/29 10:52:43;;;;;;;10.77;4.28;;;10.00;99.90;;;;;;5031396;28;20057;-66
2022/01/29 10:55:09;;;;;;;11.88;4.00;;;10.00;99.90;;;;;;5031019;28;20049;-67
2022/01/29 10:57:41;;;;;;;7.03;3.83;;;10.10;99.90;;;;;;5030101;28;20055;-67
2022/01/29 11:00:22;;;;;;;9.45;3.65;;;10.30;99.90;;;;;;5012801;28;20528;-67
2022/01/29 11:02:49;;;;;;;7.68;3.70;;;10.10;99.90;;;;;;5022817;28;20144;-66
2022/01/29 11:05:15;;;;;;;7.20;3.05;;;10.70;99.90;;;;;;5030860;28;20149;-65
2022/01/29 11:07:46;;;;;;;5.90;3.17;;;10.20;99.90;;;;;;5027229;28;20038;-65
2022/01/29 11:10:11;;;;;;;6.68;3.30;;;10.20;99.90;;;;;;5030877;28;20068;-66
2022/01/29 11:12:42;;;;;;;6.10;3.05;;;10.40;99.90;;;;;;5030853;28;20041;-65
2022/01/29 11:15:09;;;;;;;6.60;2.80;;;10.40;99.90;;;;;;5031193;28;20045;-66
2022/01/29 11:17:34;;;;;;;10.10;3.05;;;10.50;99.90;;;;;;5032612;28;20417;-65
2022/01/29 11:20:03;;;;;;;9.18;2.75;;;10.40;99.90;;;;;;5031331;28;20045;-67
2022/01/29 11:22:32;;;;;;;4.93;2.45;;;10.50;99.90;;;;;;5031262;28;20396;-66
2022/01/29 11:25:00;;;;;;;6.53;2.47;;;10.30;99.90;;;;;;5025052;28;20518;-65
2022/01/29 11:27:28;;;;;;;8.02;2.85;;;10.40;99.90;;;;;;5030717;28;20374;-65
2022/01/29 11:30:09;;;;;;;8.70;2.63;;;10.20;99.90;;;;;;5028471;28;20072;-66
2022/01/29 11:32:40;;;;;;;8.38;2.65;;;10.40;99.90;;;;;;5029137;28;20054;-65
2022/01/29 11:35:22;;;;;;;8.48;2.78;;;10.40;99.90;;;;;;5045471;28;20049;-66
2022/01/29 11:38:01;;;;;;;9.30;2.60;;;10.40;99.90;;;;;;5029222;28;20115;-66
2022/01/29 11:40:31;;;;;;;11.75;3.58;;;10.40;99.90;;;;;;5031760;28;20054;-66
2022/01/29 11:43:16;;;;;;;6.90;2.88;;;10.40;99.90;;;;;;5032170;28;20053;-66
2022/01/29 11:45:49;;;;;;;8.20;3.67;;;10.30;99.90;;;;;;5013844;28;20128;-64
2022/01/29 11:48:24;;;;;;;6.68;3.03;;;10.40;99.90;;;;;;5024319;28;20528;-65
2022/01/29 11:50:50;;;;;;;9.38;3.30;;;10.30;99.90;;;;;;5010658;28;20050;-65
2022/01/29 11:53:17;;;;;;;9.02;2.95;;;10.30;99.90;;;;;;5030970;28;20129;-65
2022/01/29 11:55:48;;;;;;;8.70;2.97;;;11.50;99.90;;;;;;5030894;28;20366;-66
2022/01/29 11:58:15;;;;;;;7.13;2.97;;;10.20;99.90;;;;;;5031266;28;20051;-65
2022/01/29 12:00:42;;;;;;;10.18;2.92;;;10.40;99.90;;;;;;5016819;28;20753;-64
2022/01/29 12:03:38;;;;;;;6.03;2.55;;;10.40;99.90;;;;;;5031895;28;20049;-66
2022/01/29 12:08:41;;;;;;;6.32;2.50;;;10.40;99.90;;;;;;5034267;28;20492;-67
2022/01/29 12:11:11;;;;;;;8.38;2.95;;;10.30;99.90;;;;;;5034531;28;20049;-66
2022/01/29 12:13:36;;;;;;;6.40;2.50;;;10.40;99.90;;;;;;5035804;28;20377;-64
2022/01/29 12:16:05;;;;;;;9.43;2.80;;;10.40;99.90;;;;;;5034487;28;20049;-65
2022/01/29 12:18:33;;;;;;;6.38;2.65;;;10.50;99.90;;;;;;5034261;28;20064;-64
2022/01/29 12:21:00;;;;;;;10.18;2.90;;;10.40;99.90;;;;;;5034736;28;20049;-65
2022/01/29 12:23:26;;;;;;;7.70;2.83;;;10.30;99.90;;;;;;5051217;28;20045;-65
2022/01/29 12:25:54;;;;;;;10.98;2.30;;;10.40;99.90;;;;;;5033984;28;20052;-65
2022/01/29 12:28:19;;;;;;;7.53;2.50;;;10.40;99.90;;;;;;5034638;28;20054;-67
2022/01/29 12:30:45;;;;;;;9.70;2.40;;;10.50;99.90;;;;;;5039109;28;20091;-67
2022/01/29 12:33:16;;;;;;;7.65;2.17;;;10.60;99.90;;;;;;5054745;28;20507;-64
2022/01/29 12:35:51;;;;;;;6.93;1.88;;;10.60;99.90;;;;;;5053639;28;20057;-64
2022/01/29 12:38:26;;;;;;;6.47;2.83;;;10.50;99.90;;;;;;5054627;28;20370;-64
2022/01/29 12:40:57;;;;;;;7.28;2.03;;;10.70;99.90;;;;;;5044287;28;20512;-63
2022/01/29 12:43:24;;;;;;;9.07;2.35;;;10.50;99.90;;;;;;5035364;28;20121;-64
2022/01/29 12:45:51;;;;;;;6.50;2.20;;;10.70;99.90;;;;;;5034050;28;20077;-65
2022/01/29 12:48:18;;;;;;;5.07;2.15;;;10.60;99.90;;;;;;5035378;28;20132;-67
2022/01/29 12:50:44;;;;;;;9.00;2.50;;;10.70;99.90;;;;;;5035046;28;20050;-67
2022/01/29 12:53:19;;;;;;;7.53;2.05;;;10.70;99.90;;;;;;5050330;28;20057;-65
2022/01/29 12:56:08;;;;;;;10.13;2.55;;;10.60;99.90;;;;;;5016997;28;20084;-65
2022/01/29 12:58:39;;;;;;;5.97;2.00;;;10.80;99.90;;;;;;5043052;28;20045;-65
2022/01/29 13:01:13;;;;;;;7.10;2.17;;;10.70;99.90;;;;;;5055150;28;20361;-65
2022/01/29 13:03:40;;;;;;;6.10;2.20;;;10.70;99.90;;;;;;5053460;28;20073;-65
2022/01/29 13:06:08;;;;;;;7.10;2.10;;;10.80;99.90;;;;;;5054254;28;20072;-64
2022/01/29 13:08:34;;;;;;;8.88;2.20;;;10.90;99.90;;;;;;5054414;28;20056;-66
2022/01/29 13:11:00;;;;;;;8.05;2.65;;;10.80;99.90;;;;;;5053148;28;20057;-67
2022/01/29 13:13:31;;;;;;;9.38;2.28;;;10.60;99.90;;;;;;5047783;28;20052;-68